Time;durP1;ratioP1;P1;durP2;ratioP2;P2;SDS_P1;SDS_P2;PMS_P1;PMS_P2;Temp;Humidity;BMP_temperature;BMP_pressure;BME280_temperature;BME280_humidity;BME280_pressure;Samples;Min_cycle;Max_cycle;Signal;HPM_P1;HPM_P2
2023/08/12 00:00:10;;;;;;;10.13;6.25;;;18.60;99.90;;;;;;5062816;28;20040;-89
2023/08/12 00:02:58;;;;;;;9.40;5.75;;;18.70;99.90;;;;;;5083937;28;20044;-88
2023/08/12 00:05:48;;;;;;;12.55;5.75;;;18.60;99.90;;;;;;5070770;28;20170;-87
2023/08/12 00:08:35;;;;;;;10.65;6.03;;;18.70;99.90;;;;;;5072818;28;20071;-88
2023/08/12 00:11:23;;;;;;;12.02;5.72;;;18.70;99.90;;;;;;5076955;28;20103;-88
2023/08/12 00:14:12;;;;;;;9.68;6.47;;;18.70;99.90;;;;;;5063267;28;20056;-90
2023/08/12 00:17:02;;;;;;;13.23;5.72;;;18.70;99.90;;;;;;5074650;28;20044;-88
2023/08/12 00:19:52;;;;;;;12.80;6.13;;;18.60;99.90;;;;;;5060251;28;20162;-89
2023/08/12 00:22:40;;;;;;;8.05;5.95;;;18.50;99.90;;;;;;5061785;28;20355;-90
2023/08/12 00:25:28;;;;;;;21.75;7.47;;;18.50;99.90;;;;;;5078556;28;20040;-89
2023/08/12 00:28:15;;;;;;;7.80;5.57;;;18.50;99.90;;;;;;5063169;28;20052;-88
2023/08/12 00:31:04;;;;;;;9.38;6.40;;;18.40;99.90;;;;;;5076728;28;20051;-89
2023/08/12 00:33:53;;;;;;;8.85;6.18;;;18.50;99.90;;;;;;5055147;28;20133;-89
2023/08/12 00:36:54;;;;;;;7.50;5.38;;;18.50;99.90;;;;;;5080494;28;20139;-89
2023/08/12 00:39:46;;;;;;;8.50;6.53;;;18.60;99.90;;;;;;5075162;28;20068;-87
2023/08/12 00:42:33;;;;;;;9.57;6.00;;;18.60;99.90;;;;;;5085032;28;20040;-87
2023/08/12 00:45:20;;;;;;;9.52;6.30;;;18.70;99.90;;;;;;5068877;28;20412;-89
2023/08/12 00:48:11;;;;;;;16.15;6.32;;;18.60;99.90;;;;;;5082086;28;20040;-89
2023/08/12 00:51:01;;;;;;;8.00;6.22;;;18.50;99.90;;;;;;5075044;28;20117;-87
2023/08/12 00:53:53;;;;;;;9.57;6.30;;;18.50;99.90;;;;;;5075563;28;20509;-88
2023/08/12 00:56:41;;;;;;;10.32;6.18;;;18.30;99.90;;;;;;5064462;28;20060;-88
2023/08/12 00:59:32;;;;;;;10.90;7.05;;;18.10;99.90;;;;;;5066158;28;20704;-88
2023/08/12 01:02:19;;;;;;;6.85;5.93;;;18.00;99.90;;;;;;5081104;28;20044;-89
2023/08/12 01:05:10;;;;;;;8.57;6.70;;;18.10;99.90;;;;;;5079228;28;20041;-86
2023/08/12 01:07:57;;;;;;;9.55;6.25;;;18.10;99.90;;;;;;5057357;28;20052;-88
2023/08/12 01:10:52;;;;;;;8.23;6.43;;;18.10;99.90;;;;;;5089776;28;20040;-90
2023/08/12 01:13:52;;;;;;;7.97;6.13;;;18.10;99.90;;;;;;5086889;28;20131;-88
2023/08/12 01:16:45;;;;;;;10.50;6.10;;;18.20;99.90;;;;;;5082586;28;20346;-89
2023/08/12 01:19:36;;;;;;;7.18;5.40;;;18.30;99.90;;;;;;5071399;28;20045;-88
2023/08/12 01:22:25;;;;;;;8.85;5.72;;;18.30;99.90;;;;;;5077681;28;20126;-88
2023/08/12 01:25:13;;;;;;;8.43;5.45;;;18.20;99.90;;;;;;5076837;28;20041;-88
2023/08/12 01:28:00;;;;;;;7.40;4.65;;;18.20;99.90;;;;;;5071735;28;20055;-88
2023/08/12 01:31:36;;;;;;;7.82;4.97;;;18.20;99.90;;;;;;5077232;28;20182;-88
2023/08/12 01:34:42;;;;;;;6.60;4.50;;;18.20;99.90;;;;;;5051830;28;20070;-89
2023/08/12 01:37:43;;;;;;;8.75;5.10;;;18.20;99.90;;;;;;5081503;28;20143;-89
2023/08/12 01:41:22;;;;;;;6.88;5.00;;;18.30;99.90;;;;;;5066834;28;20085;-90
2023/08/12 01:44:09;;;;;;;6.40;4.80;;;18.40;99.90;;;;;;5083582;28;20059;-89
2023/08/12 01:46:57;;;;;;;6.03;5.20;;;18.60;99.90;;;;;;5068684;28;20049;-90
2023/08/12 01:49:44;;;;;;;7.57;5.38;;;18.70;99.90;;;;;;5078546;28;20036;-90
2023/08/12 01:52:32;;;;;;;8.93;4.93;;;18.90;99.90;;;;;;5080763;28;20052;-88
2023/08/12 01:55:21;;;;;;;10.20;5.28;;;19.00;99.90;;;;;;5069836;28;20055;-88
2023/08/12 01:58:08;;;;;;;9.20;5.25;;;19.10;99.90;;;;;;5093695;28;20044;-90
2023/08/12 02:00:56;;;;;;;5.32;4.70;;;19.10;99.90;;;;;;5086971;28;20045;-90
2023/08/12 02:03:47;;;;;;;5.95;5.15;;;19.10;99.90;;;;;;5064040;28;20073;-89
2023/08/12 02:06:37;;;;;;;7.70;5.20;;;19.10;99.90;;;;;;5085736;28;20045;-88
2023/08/12 02:09:24;;;;;;;7.95;5.22;;;19.10;99.90;;;;;;5088247;28;20041;-89
2023/08/12 02:12:14;;;;;;;5.82;4.78;;;19.00;99.90;;;;;;5061621;28;20040;-89
2023/08/12 02:15:02;;;;;;;8.25;5.25;;;19.00;99.90;;;;;;5073169;28;20513;-89
2023/08/12 02:17:50;;;;;;;9.27;5.68;;;18.90;99.90;;;;;;5065832;28;20063;-90
2023/08/12 02:20:40;;;;;;;9.68;5.28;;;18.90;99.90;;;;;;5080679;28;20446;-88
2023/08/12 02:23:27;;;;;;;7.38;5.00;;;18.90;99.90;;;;;;5071985;28;20041;-89
2023/08/12 02:26:20;;;;;;;6.65;5.35;;;18.90;99.90;;;;;;5076749;28;20496;-88
2023/08/12 02:29:07;;;;;;;9.10;5.55;;;18.80;99.90;;;;;;5065005;28;20568;-89
2023/08/12 02:31:55;;;;;;;10.95;5.63;;;18.80;99.90;;;;;;5076327;28;20426;-88
2023/08/12 02:34:45;;;;;;;11.20;6.25;;;18.80;99.90;;;;;;5072966;28;20496;-88
2023/08/12 02:37:32;;;;;;;7.15;5.30;;;18.80;99.90;;;;;;5066751;28;20119;-87
2023/08/12 02:40:19;;;;;;;7.75;5.03;;;18.80;99.90;;;;;;5057803;28;20370;-88
2023/08/12 02:43:06;;;;;;;7.10;5.10;;;18.80;99.90;;;;;;5058926;28;20052;-90
2023/08/12 02:45:53;;;;;;;10.52;5.47;;;18.80;99.90;;;;;;5050877;28;20047;-88
2023/08/12 02:48:42;;;;;;;9.65;5.80;;;18.80;99.90;;;;;;5064401;28;20071;-86
2023/08/12 02:51:29;;;;;;;6.53;5.55;;;18.90;99.90;;;;;;5075133;28;20051;-89
2023/08/12 02:54:17;;;;;;;8.63;5.47;;;18.90;99.90;;;;;;5072882;28;20049;-89
2023/08/12 02:57:04;;;;;;;8.00;5.65;;;18.90;99.90;;;;;;5065271;28;20055;-88
2023/08/12 02:59:51;;;;;;;8.68;5.55;;;18.90;99.90;;;;;;5071962;28;20131;-88
2023/08/12 03:02:44;;;;;;;7.32;5.32;;;19.00;99.90;;;;;;5076280;28;20037;-88
2023/08/12 03:05:32;;;;;;;11.18;6.03;;;19.00;99.90;;;;;;5088703;28;20204;-88
2023/08/12 03:08:19;;;;;;;9.57;5.15;;;18.90;99.90;;;;;;5049671;28;20465;-91
2023/08/12 03:11:06;;;;;;;8.20;5.18;;;18.90;99.90;;;;;;5077847;28;20129;-90
2023/08/12 03:13:54;;;;;;;7.40;5.95;;;18.90;99.90;;;;;;5075053;28;20450;-88
2023/08/12 03:16:41;;;;;;;6.95;5.43;;;18.90;99.90;;;;;;5076251;28;20044;-90
2023/08/12 03:19:28;;;;;;;6.60;5.20;;;19.00;99.90;;;;;;5076214;28;20048;-89
2023/08/12 03:22:18;;;;;;;7.05;5.40;;;19.00;99.90;;;;;;5062715;28;20045;-90
2023/08/12 03:25:08;;;;;;;7.43;5.60;;;19.00;99.90;;;;;;5065966;28;20139;-89
2023/08/12 03:27:55;;;;;;;8.02;6.20;;;18.90;99.90;;;;;;5062384;28;20051;-89
2023/08/12 03:30:49;;;;;;;8.57;6.38;;;18.80;99.90;;;;;;5057768;28;20041;-89
2023/08/12 03:33:39;;;;;;;6.68;5.63;;;18.80;99.90;;;;;;5055830;28;20048;-89
2023/08/12 03:36:26;;;;;;;9.15;5.70;;;18.80;99.90;;;;;;5051911;28;20370;-89
2023/08/12 03:39:14;;;;;;;5.78;5.18;;;18.80;99.90;;;;;;5075280;28;20059;-88
2023/08/12 03:42:01;;;;;;;9.98;5.18;;;18.80;99.90;;;;;;5075954;28;20048;-89
2023/08/12 03:44:53;;;;;;;5.35;4.75;;;18.80;99.90;;;;;;5081025;28;20461;-88
2023/08/12 03:47:40;;;;;;;11.75;5.10;;;18.90;99.90;;;;;;5070088;28;20424;-89
2023/08/12 03:50:29;;;;;;;7.35;5.65;;;18.90;99.90;;;;;;5090555;28;20040;-88
2023/08/12 03:53:17;;;;;;;7.28;5.72;;;18.90;99.90;;;;;;5056267;28;20045;-89
2023/08/12 03:56:04;;;;;;;6.82;4.80;;;19.00;99.90;;;;;;5061854;28;20339;-90
2023/08/12 03:58:52;;;;;;;7.32;5.15;;;19.00;99.90;;;;;;5072727;28;20128;-91
2023/08/12 04:01:44;;;;;;;10.75;5.55;;;19.00;99.90;;;;;;5077128;28;20044;-89
2023/08/12 04:04:31;;;;;;;6.10;5.38;;;19.10;99.90;;;;;;5058556;28;20116;-89
2023/08/12 04:07:18;;;;;;;13.27;5.88;;;19.10;99.90;;;;;;5078969;28;20044;-88
2023/08/12 04:10:12;;;;;;;7.38;5.65;;;19.20;99.90;;;;;;5074476;28;20055;-89
2023/08/12 04:12:59;;;;;;;8.38;5.43;;;19.20;99.90;;;;;;5065182;28;20044;-88
2023/08/12 04:15:49;;;;;;;6.90;5.38;;;19.20;99.90;;;;;;5091651;28;20049;-89
2023/08/12 04:18:37;;;;;;;10.73;6.03;;;19.10;99.90;;;;;;5064459;28;20102;-89
2023/08/12 04:21:24;;;;;;;7.70;5.10;;;19.10;99.90;;;;;;5096304;28;20052;-88
2023/08/12 04:24:11;;;;;;;6.45;5.60;;;19.10;99.90;;;;;;5073306;28;20045;-90
2023/08/12 04:26:58;;;;;;;6.25;5.43;;;19.20;99.90;;;;;;5059912;28;20378;-88
2023/08/12 04:29:46;;;;;;;8.25;5.43;;;19.30;99.90;;;;;;5072855;28;20468;-89
2023/08/12 04:32:34;;;;;;;9.38;5.65;;;19.40;99.90;;;;;;5073774;28;20471;-89
2023/08/12 04:35:22;;;;;;;5.65;5.03;;;19.50;99.90;;;;;;5062663;28;20102;-89
2023/08/12 04:38:09;;;;;;;7.70;5.00;;;19.60;99.90;;;;;;5068049;28;20048;-89
2023/08/12 04:40:56;;;;;;;8.35;4.57;;;19.70;99.90;;;;;;5061208;28;20049;-88
2023/08/12 04:43:43;;;;;;;9.68;5.15;;;19.70;99.90;;;;;;5056701;28;20036;-88
2023/08/12 04:46:31;;;;;;;11.38;5.43;;;19.80;99.90;;;;;;5080204;28;20048;-90
2023/08/12 04:49:20;;;;;;;6.03;5.25;;;19.80;99.90;;;;;;5073328;28;20475;-87
2023/08/12 04:52:07;;;;;;;8.25;5.97;;;19.70;99.90;;;;;;5055677;28;20057;-88
2023/08/12 04:54:54;;;;;;;10.27;6.28;;;19.40;99.90;;;;;;5053382;28;20045;-88
2023/08/12 04:57:42;;;;;;;6.90;6.15;;;19.20;99.90;;;;;;5075000;28;20044;-89
2023/08/12 05:00:29;;;;;;;7.38;6.15;;;19.10;99.90;;;;;;5071138;28;20075;-88
2023/08/12 05:03:17;;;;;;;9.40;6.10;;;19.00;99.90;;;;;;5067171;28;20540;-89
2023/08/12 05:06:05;;;;;;;7.47;6.68;;;19.00;99.90;;;;;;5089049;28;20622;-87
2023/08/12 05:08:52;;;;;;;7.10;6.25;;;19.10;99.90;;;;;;5069509;28;20053;-90
2023/08/12 05:11:39;;;;;;;7.07;5.70;;;19.10;99.90;;;;;;5074240;28;20041;-89
2023/08/12 05:14:27;;;;;;;9.02;6.13;;;19.00;99.90;;;;;;5059658;28;20040;-87
2023/08/12 05:17:14;;;;;;;7.07;5.82;;;19.00;99.90;;;;;;5064765;28;20488;-87
2023/08/12 05:20:01;;;;;;;8.48;6.18;;;19.00;99.90;;;;;;5073967;28;20044;-91
2023/08/12 05:22:51;;;;;;;8.30;6.88;;;19.00;99.90;;;;;;5060139;28;20048;-88
2023/08/12 05:25:41;;;;;;;7.32;6.07;;;19.00;99.90;;;;;;5064647;28;20045;-90
2023/08/12 05:28:29;;;;;;;9.20;6.45;;;19.10;99.90;;;;;;5068796;28;20206;-88
2023/08/12 05:31:16;;;;;;;10.10;6.28;;;19.20;99.90;;;;;;5076829;28;20052;-92
2023/08/12 05:34:04;;;;;;;7.97;6.47;;;19.30;99.90;;;;;;5079206;28;20060;-89
2023/08/12 05:36:59;;;;;;;9.55;6.15;;;19.30;99.90;;;;;;5088695;28;20048;-91
2023/08/12 05:39:47;;;;;;;6.80;5.95;;;19.40;99.90;;;;;;5069788;28;20037;-90
2023/08/12 05:42:36;;;;;;;7.05;5.75;;;19.40;99.90;;;;;;5086813;28;20040;-91
2023/08/12 05:45:23;;;;;;;7.30;5.80;;;19.40;99.90;;;;;;5077791;28;20458;-93
2023/08/12 05:48:13;;;;;;;7.97;6.03;;;19.40;99.90;;;;;;5072759;28;20491;-91
2023/08/12 05:51:03;;;;;;;9.50;6.78;;;19.40;99.90;;;;;;5073654;28;20054;-93
2023/08/12 05:53:50;;;;;;;8.52;6.00;;;19.50;99.90;;;;;;5084143;28;20495;-91
2023/08/12 05:56:37;;;;;;;8.70;6.57;;;19.50;99.90;;;;;;5085563;28;20052;-93
2023/08/12 05:59:48;;;;;;;7.95;5.80;;;19.50;99.90;;;;;;5064671;28;20100;-94
2023/08/12 06:02:44;;;;;;;7.40;6.30;;;19.60;99.90;;;;;;5077650;28;20096;-91
2023/08/12 06:05:32;;;;;;;6.38;5.50;;;19.60;99.90;;;;;;5083220;28;20354;-93
2023/08/12 06:08:19;;;;;;;11.65;6.93;;;19.50;99.90;;;;;;5085211;28;20048;-90
2023/08/12 06:11:07;;;;;;;8.65;6.35;;;19.60;99.90;;;;;;5058005;28;20036;-92
2023/08/12 06:13:54;;;;;;;12.07;6.82;;;19.60;99.90;;;;;;5077516;28;20053;-91
2023/08/12 06:16:43;;;;;;;8.45;6.35;;;19.70;99.90;;;;;;5075798;28;20059;-93
2023/08/12 06:19:31;;;;;;;9.15;6.25;;;19.90;99.90;;;;;;5074296;28;20095;-90
2023/08/12 06:22:18;;;;;;;6.68;5.68;;;20.10;99.90;;;;;;5083224;28;20048;-93
2023/08/12 06:25:06;;;;;;;9.68;5.65;;;20.30;99.90;;;;;;5064987;28;20044;-93
2023/08/12 06:27:58;;;;;;;8.75;5.75;;;20.40;99.90;;;;;;5083506;28;20063;-92
2023/08/12 06:30:47;;;;;;;8.82;5.63;;;20.50;99.90;;;;;;5062624;28;20417;-93
2023/08/12 06:33:35;;;;;;;8.70;6.13;;;20.60;99.90;;;;;;5074242;28;20139;-91
2023/08/12 06:36:27;;;;;;;8.75;5.68;;;20.70;99.90;;;;;;5080302;28;20056;-92
2023/08/12 06:39:17;;;;;;;9.10;5.25;;;21.10;99.90;;;;;;5078012;28;20048;-91
2023/08/12 06:42:05;;;;;;;7.50;5.40;;;21.40;99.90;;;;;;5080406;28;20040;-93
2023/08/12 06:44:59;;;;;;;6.13;5.13;;;21.70;99.90;;;;;;5075229;28;20045;-92
2023/08/12 06:47:47;;;;;;;6.00;4.93;;;22.00;99.90;;;;;;5062995;28;20051;-93
2023/08/12 06:50:35;;;;;;;7.05;5.13;;;22.10;99.90;;;;;;5064507;28;20448;-90
2023/08/12 06:53:22;;;;;;;8.45;5.18;;;22.20;99.90;;;;;;5071157;28;20054;-90
2023/08/12 06:56:10;;;;;;;7.07;5.68;;;22.20;99.90;;;;;;5060284;28;20057;-89
2023/08/12 06:58:57;;;;;;;6.00;5.35;;;22.10;99.90;;;;;;5077102;28;20059;-92
2023/08/12 07:01:47;;;;;;;5.97;5.38;;;22.00;99.90;;;;;;5071201;28;20045;-93
2023/08/12 07:04:34;;;;;;;8.55;5.40;;;22.10;99.90;;;;;;5078943;28;20044;-94
2023/08/12 07:07:26;;;;;;;10.40;5.72;;;22.30;99.90;;;;;;5089352;28;20149;-94
2023/08/12 07:10:13;;;;;;;5.55;4.60;;;22.50;99.90;;;;;;5080364;28;20041;-92
2023/08/12 07:13:00;;;;;;;7.50;5.57;;;22.70;99.90;;;;;;5066798;28;20056;-89
2023/08/12 07:15:48;;;;;;;8.05;5.15;;;23.00;99.90;;;;;;5080528;28;20102;-93
2023/08/12 07:18:54;;;;;;;6.75;5.03;;;23.40;99.90;;;;;;5076989;28;20052;-94
2023/08/12 07:21:43;;;;;;;7.85;4.93;;;23.70;99.90;;;;;;5085917;28;20036;-92
2023/08/12 07:24:31;;;;;;;12.45;5.00;;;23.90;99.90;;;;;;5085602;28;20059;-92
2023/08/12 07:27:22;;;;;;;6.60;5.15;;;24.50;99.90;;;;;;5072848;28;20142;-94
2023/08/12 07:30:12;;;;;;;5.25;3.85;;;25.20;99.90;;;;;;5087396;28;20040;-92
2023/08/12 07:32:59;;;;;;;4.68;3.58;;;25.70;99.90;;;;;;5060871;28;20481;-88
2023/08/12 07:35:50;;;;;;;7.07;3.65;;;26.00;99.90;;;;;;5069283;28;20462;-88
2023/08/12 07:38:38;;;;;;;9.60;3.83;;;26.10;95.30;;;;;;5076584;28;20041;-92
2023/08/12 07:41:27;;;;;;;5.10;3.47;;;25.70;94.10;;;;;;5075542;28;20083;-91
2023/08/12 07:44:17;;;;;;;5.68;3.47;;;25.20;94.50;;;;;;5070721;28;20334;-88
2023/08/12 07:47:07;;;;;;;4.45;3.22;;;25.20;94.10;;;;;;5057866;28;20051;-86
2023/08/12 07:49:57;;;;;;;5.90;3.40;;;25.70;92.90;;;;;;5068545;28;20465;-83
2023/08/12 07:52:45;;;;;;;5.70;3.35;;;26.10;91.40;;;;;;5068456;28;20051;-87
2023/08/12 07:55:34;;;;;;;5.47;2.97;;;26.40;91.10;;;;;;5053296;28;20052;-85
2023/08/12 07:58:22;;;;;;;3.67;3.08;;;26.80;89.50;;;;;;5065106;28;20089;-86
2023/08/12 08:01:09;;;;;;;7.40;3.00;;;27.30;85.40;;;;;;5074665;28;20040;-86
2023/08/12 08:03:59;;;;;;;7.68;3.15;;;27.70;82.20;;;;;;5069080;28;20049;-86
2023/08/12 08:06:46;;;;;;;9.07;3.40;;;27.70;78.70;;;;;;5065734;28;20396;-85
2023/08/12 08:09:37;;;;;;;4.63;3.00;;;27.20;80.80;;;;;;5066227;28;20055;-86
2023/08/12 08:12:24;;;;;;;9.15;3.38;;;26.80;81.40;;;;;;5055762;28;20045;-85
2023/08/12 08:15:11;;;;;;;9.13;2.90;;;26.90;81.50;;;;;;5071427;28;20043;-85
2023/08/12 08:17:59;;;;;;;5.50;3.15;;;26.90;80.70;;;;;;5066828;28;20044;-86
2023/08/12 08:20:48;;;;;;;4.13;2.70;;;27.50;79.40;;;;;;5050343;28;20040;-86
2023/08/12 08:23:35;;;;;;;4.80;2.67;;;28.00;76.00;;;;;;5071920;28;20041;-85
2023/08/12 08:26:23;;;;;;;6.47;2.80;;;28.20;76.50;;;;;;5068470;28;20051;-86
2023/08/12 08:29:10;;;;;;;5.60;2.80;;;28.50;70.80;;;;;;5050026;28;20040;-85
2023/08/12 08:31:57;;;;;;;8.35;3.47;;;28.30;70.60;;;;;;5088488;28;20119;-85
2023/08/12 08:34:47;;;;;;;4.75;2.40;;;28.70;70.00;;;;;;5060695;28;20044;-86
2023/08/12 08:37:35;;;;;;;3.17;2.63;;;28.70;67.70;;;;;;5057066;28;20380;-86
2023/08/12 08:40:23;;;;;;;5.57;2.70;;;28.80;68.20;;;;;;5064185;28;20059;-86
2023/08/12 08:43:13;;;;;;;24.85;5.95;;;29.20;64.90;;;;;;5066575;28;20045;-87
2023/08/12 08:46:02;;;;;;;3.85;2.72;;;29.30;64.10;;;;;;5070236;28;20041;-84
2023/08/12 08:48:50;;;;;;;3.67;2.90;;;29.10;64.10;;;;;;5060847;28;20069;-86
2023/08/12 08:51:38;;;;;;;4.80;2.90;;;28.70;66.70;;;;;;5067880;28;20055;-85
2023/08/12 08:54:26;;;;;;;3.85;2.92;;;28.80;67.60;;;;;;5075646;28;20048;-86
2023/08/12 08:57:13;;;;;;;4.55;2.90;;;29.00;67.30;;;;;;5071832;28;20059;-86
2023/08/12 09:00:10;;;;;;;8.13;2.90;;;29.40;65.20;;;;;;5062421;28;20053;-85
2023/08/12 09:03:02;;;;;;;4.05;3.08;;;29.40;63.90;;;;;;5069281;28;20048;-86
2023/08/12 09:05:51;;;;;;;4.90;3.13;;;29.50;63.70;;;;;;5075804;28;20055;-87
2023/08/12 09:08:44;;;;;;;5.47;2.75;;;29.70;61.20;;;;;;5091377;28;20149;-85
2023/08/12 09:11:33;;;;;;;4.85;2.72;;;30.00;61.50;;;;;;5062594;28;20451;-85
2023/08/12 09:14:23;;;;;;;7.03;2.50;;;30.50;60.20;;;;;;5072389;28;20049;-86
2023/08/12 09:17:10;;;;;;;7.40;2.95;;;30.00;60.80;;;;;;5070764;28;20047;-87
2023/08/12 09:19:58;;;;;;;4.88;2.58;;;29.70;59.80;;;;;;5068007;28;20048;-86
2023/08/12 09:22:45;;;;;;;8.70;3.00;;;29.50;61.30;;;;;;5081399;28;20059;-86
2023/08/12 09:25:35;;;;;;;5.90;3.13;;;29.40;62.30;;;;;;5081714;28;20063;-85
2023/08/12 09:28:24;;;;;;;5.47;2.70;;;30.30;60.40;;;;;;5077231;28;20058;-85
2023/08/12 09:31:22;;;;;;;4.88;2.70;;;30.50;58.50;;;;;;5076758;28;20056;-86
2023/08/12 09:34:09;;;;;;;6.93;2.65;;;29.80;60.30;;;;;;5061920;28;20040;-87
2023/08/12 09:36:57;;;;;;;6.85;3.10;;;29.70;61.20;;;;;;5055761;28;20048;-86
2023/08/12 09:39:49;;;;;;;4.72;2.75;;;29.40;61.30;;;;;;5058348;28;20058;-85
2023/08/12 09:42:45;;;;;;;6.07;2.97;;;28.90;62.60;;;;;;5058294;28;20063;-85
2023/08/12 09:45:33;;;;;;;5.50;2.75;;;28.10;65.30;;;;;;5076568;28;20048;-84
2023/08/12 09:48:21;;;;;;;5.72;3.03;;;27.80;67.10;;;;;;5075347;28;20353;-85
2023/08/12 09:51:09;;;;;;;3.55;2.95;;;27.80;68.10;;;;;;5066619;28;20054;-86
2023/08/12 09:53:56;;;;;;;4.45;2.60;;;27.70;68.80;;;;;;5078666;28;20070;-85
2023/08/12 09:56:48;;;;;;;8.13;3.40;;;27.50;68.20;;;;;;5061198;28;20048;-85
2023/08/12 09:59:40;;;;;;;5.32;3.38;;;27.40;68.70;;;;;;5065762;28;20048;-85
2023/08/12 10:02:28;;;;;;;4.97;2.85;;;27.20;69.90;;;;;;5073890;28;20040;-85
2023/08/12 10:05:21;;;;;;;3.95;2.78;;;27.40;73.00;;;;;;5059673;28;20574;-85
2023/08/12 10:08:09;;;;;;;6.03;3.35;;;27.50;72.10;;;;;;5068366;28;20040;-85
2023/08/12 10:10:57;;;;;;;6.50;2.90;;;27.80;70.00;;;;;;5070587;28;20044;-86
2023/08/12 10:13:58;;;;;;;4.20;3.00;;;27.70;69.90;;;;;;5076922;28;20048;-87
2023/08/12 10:16:47;;;;;;;9.27;3.42;;;27.70;69.20;;;;;;5074885;28;20052;-84
2023/08/12 10:19:35;;;;;;;9.68;3.53;;;27.80;71.00;;;;;;5072347;28;20060;-85
2023/08/12 10:22:25;;;;;;;5.38;3.13;;;27.80;69.50;;;;;;5072195;28;20048;-84
2023/08/12 10:25:14;;;;;;;6.07;4.32;;;27.70;71.10;;;;;;5075634;28;20044;-84
2023/08/12 10:28:03;;;;;;;9.07;4.45;;;27.80;70.90;;;;;;5069419;28;20052;-85
2023/08/12 10:30:54;;;;;;;7.82;3.63;;;27.60;71.40;;;;;;5074170;28;20036;-85
2023/08/12 10:33:44;;;;;;;5.05;3.00;;;27.50;71.80;;;;;;5076386;28;20044;-85
2023/08/12 10:36:32;;;;;;;6.65;3.30;;;27.50;71.70;;;;;;5072203;28;20041;-85
2023/08/12 10:39:26;;;;;;;3.78;3.25;;;27.60;71.30;;;;;;5044281;28;20056;-86
2023/08/12 10:42:13;;;;;;;7.35;3.17;;;27.80;72.20;;;;;;5073984;28;20495;-90
2023/08/12 10:45:05;;;;;;;5.97;3.22;;;28.20;70.80;;;;;;5068611;28;20045;-91
2023/08/12 10:47:59;;;;;;;7.72;3.63;;;29.20;70.80;;;;;;5060049;28;20059;-90
2023/08/12 10:50:54;;;;;;;5.68;3.38;;;29.30;67.40;;;;;;5050133;28;20139;-88
2023/08/12 10:53:48;;;;;;;4.45;2.75;;;29.00;68.50;;;;;;5071728;28;20135;-88
2023/08/12 10:57:19;;;;;;;5.38;2.75;;;29.00;65.70;;;;;;5071253;28;20041;-90
2023/08/12 11:00:29;;;;;;;5.93;2.90;;;29.00;66.40;;;;;;5069720;28;20052;-89
2023/08/12 11:03:16;;;;;;;4.20;2.88;;;28.70;65.70;;;;;;5064869;28;20040;-89
2023/08/12 11:06:03;;;;;;;4.13;2.95;;;29.60;62.90;;;;;;5073984;28;20147;-90
2023/08/12 11:08:55;;;;;;;6.43;2.67;;;29.00;64.20;;;;;;5062173;28;20041;-93
2023/08/12 11:11:43;;;;;;;4.53;2.72;;;29.70;64.70;;;;;;5063841;28;20468;-90
2023/08/12 11:14:30;;;;;;;4.15;2.67;;;30.10;63.20;;;;;;5072076;28;20112;-90
2023/08/12 11:17:17;;;;;;;4.53;3.17;;;30.50;62.20;;;;;;5086490;28;20041;-88
2023/08/12 11:20:07;;;;;;;4.13;2.90;;;30.80;60.00;;;;;;5070727;28;20045;-89
2023/08/12 11:22:59;;;;;;;8.05;2.85;;;30.20;61.70;;;;;;5074410;28;20091;-91
2023/08/12 11:25:49;;;;;;;9.10;3.33;;;29.90;63.50;;;;;;5057127;28;20045;-88
2023/08/12 11:28:40;;;;;;;6.40;3.03;;;29.60;63.80;;;;;;5070328;28;20467;-91
2023/08/12 11:31:30;;;;;;;4.57;2.85;;;29.40;63.10;;;;;;5076011;28;20354;-89
2023/08/12 11:34:18;;;;;;;4.75;2.80;;;28.90;63.70;;;;;;5092997;28;20095;-87
2023/08/12 11:37:05;;;;;;;4.22;2.47;;;28.50;65.20;;;;;;5069192;28;20052;-89
2023/08/12 11:39:53;;;;;;;15.32;4.80;;;28.60;64.70;;;;;;5077348;28;20052;-90
2023/08/12 11:42:45;;;;;;;3.95;2.90;;;28.50;63.80;;;;;;5075953;28;20064;-89
2023/08/12 11:45:37;;;;;;;6.28;2.67;;;28.40;62.90;;;;;;5060898;28;20056;-90
2023/08/12 11:48:24;;;;;;;20.00;4.78;;;28.90;63.10;;;;;;5066511;28;20123;-89
2023/08/12 11:51:13;;;;;;;6.28;3.00;;;30.20;59.20;;;;;;5075488;28;20044;-88
2023/08/12 11:54:01;;;;;;;8.88;3.17;;;31.40;57.70;;;;;;5042904;28;20064;-89
2023/08/12 11:56:49;;;;;;;6.85;2.88;;;32.10;55.20;;;;;;5059678;28;20058;-88
2023/08/12 11:59:37;;;;;;;6.53;3.22;;;30.50;57.10;;;;;;5072154;28;20049;-89
2023/08/12 12:02:24;;;;;;;4.25;2.70;;;29.50;60.10;;;;;;5060489;28;20720;-91
2023/08/12 12:05:13;;;;;;;23.05;4.30;;;29.00;61.70;;;;;;5075784;28;20142;-89
2023/08/12 12:08:04;;;;;;;13.90;3.90;;;28.80;62.40;;;;;;5064527;28;20484;-88
2023/08/12 12:11:03;;;;;;;6.47;2.90;;;28.60;62.30;;;;;;5054222;28;20071;-87
2023/08/12 12:13:51;;;;;;;4.53;2.95;;;28.30;63.80;;;;;;5071222;28;20057;-89
2023/08/12 12:16:46;;;;;;;5.60;2.97;;;28.10;65.00;;;;;;5075484;28;20080;-90
2023/08/12 12:19:43;;;;;;;4.53;2.88;;;27.80;70.60;;;;;;5071807;28;20068;-93
2023/08/12 12:22:45;;;;;;;7.78;2.80;;;26.50;85.20;;;;;;5056441;28;20096;-93
2023/08/12 12:25:33;;;;;;;18.38;3.58;;;25.10;91.60;;;;;;5057795;28;20045;-90
2023/08/12 12:28:21;;;;;;;12.70;4.95;;;24.30;99.90;;;;;;5068612;28;20048;-89
2023/08/12 12:31:15;;;;;;;13.63;4.65;;;23.30;99.90;;;;;;5071701;28;20048;-89
2023/08/12 12:34:06;;;;;;;9.93;4.50;;;22.40;99.90;;;;;;5064344;28;20143;-88
2023/08/12 12:36:53;;;;;;;15.32;5.50;;;21.50;99.90;;;;;;5063811;28;20076;-88
2023/08/12 12:39:41;;;;;;;12.52;5.30;;;21.10;43.90;;;;;;5067351;28;20044;-86
2023/08/12 12:42:29;;;;;;;15.13;6.05;;;21.10;99.90;;;;;;5074030;28;20064;-87
2023/08/12 12:45:16;;;;;;;10.95;5.65;;;21.10;99.90;;;;;;5087010;28;20026;-87
2023/08/12 12:48:04;;;;;;;15.93;6.70;;;21.10;99.90;;;;;;5063596;28;20049;-87
2023/08/12 12:50:51;;;;;;;10.75;5.90;;;21.20;99.90;;;;;;5049240;28;20409;-88
2023/08/12 12:53:39;;;;;;;14.63;7.43;;;21.20;99.90;;;;;;5072110;28;20059;-88
2023/08/12 12:56:28;;;;;;;15.20;6.70;;;21.20;99.90;;;;;;5085560;28;20048;-90
2023/08/12 12:59:15;;;;;;;11.27;6.20;;;21.30;99.90;;;;;;5097450;28;20055;-89
2023/08/12 13:02:02;;;;;;;14.48;5.72;;;21.10;99.90;;;;;;5084895;28;20045;-89
2023/08/12 13:04:52;;;;;;;8.20;5.10;;;21.10;99.90;;;;;;5063071;28;20044;-90
2023/08/12 13:07:52;;;;;;;14.13;6.03;;;21.20;99.90;;;;;;5075894;28;20044;-88
2023/08/12 13:10:44;;;;;;;11.32;5.57;;;21.20;99.90;;;;;;5052363;28;20045;-90
2023/08/12 13:13:32;;;;;;;9.98;5.55;;;21.10;99.90;;;;;;5069420;28;20449;-89
2023/08/12 13:16:19;;;;;;;10.10;5.30;;;21.10;99.90;;;;;;5072587;28;20045;-91
2023/08/12 13:19:06;;;;;;;9.80;5.53;;;21.10;99.90;;;;;;5060560;28;20376;-90
2023/08/12 13:21:54;;;;;;;8.70;5.82;;;21.20;99.90;;;;;;5074351;28;20521;-89
2023/08/12 13:24:41;;;;;;;11.95;5.13;;;21.30;99.90;;;;;;5065378;28;20056;-90
2023/08/12 13:27:29;;;;;;;10.43;4.90;;;21.50;99.90;;;;;;5062516;28;20048;-90
2023/08/12 13:30:19;;;;;;;8.63;4.53;;;21.80;99.90;;;;;;5063006;28;20048;-88
2023/08/12 13:33:06;;;;;;;11.73;3.75;;;22.30;99.90;;;;;;5054769;28;20354;-89
2023/08/12 13:35:54;;;;;;;4.32;3.08;;;22.90;99.90;;;;;;5068430;28;20072;-90
2023/08/12 13:38:43;;;;;;;4.35;2.90;;;23.10;99.90;;;;;;5070024;28;20041;-88
2023/08/12 13:41:31;;;;;;;5.93;2.30;;;23.70;99.90;;;;;;5081237;28;20039;-89
2023/08/12 13:44:18;;;;;;;3.28;2.17;;;24.40;99.90;;;;;;5064138;28;20033;-88
2023/08/12 13:47:08;;;;;;;4.05;1.98;;;24.80;99.90;;;;;;5053691;28;20083;-89
2023/08/12 13:49:58;;;;;;;4.80;2.10;;;24.90;99.90;;;;;;5050944;28;20053;-87
2023/08/12 13:52:50;;;;;;;4.57;1.70;;;24.80;99.90;;;;;;5066380;28;20049;-90
2023/08/12 13:55:37;;;;;;;3.03;1.48;;;24.60;1.00;;;;;;5086502;28;20114;-90
2023/08/12 13:58:25;;;;;;;3.42;1.60;;;24.60;1.00;;;;;;5091704;28;20057;-90
2023/08/12 14:01:12;;;;;;;5.82;1.67;;;24.70;1.00;;;;;;5074973;28;20368;-90
2023/08/12 14:03:59;;;;;;;5.00;1.70;;;25.10;99.90;;;;;;5072625;28;20342;-87
2023/08/12 14:06:47;;;;;;;4.60;1.73;;;25.30;99.90;;;;;;5075958;28;20357;-92
2023/08/12 14:09:38;;;;;;;17.38;1.73;;;26.00;99.90;;;;;;5051640;28;20045;-90
2023/08/12 14:12:26;;;;;;;4.40;1.77;;;27.20;80.10;;;;;;5057389;28;20041;-90
2023/08/12 14:15:13;;;;;;;2.53;1.55;;;28.30;1.00;;;;;;5063357;28;20049;-91
2023/08/12 14:18:00;;;;;;;2.33;1.58;;;29.50;99.90;;;;;;5070762;28;20414;-91
2023/08/12 14:20:48;;;;;;;2.75;1.65;;;29.40;99.90;;;;;;5077591;28;20063;-90
2023/08/12 14:23:35;;;;;;;4.57;1.73;;;29.60;99.90;;;;;;5063249;28;20049;-89
2023/08/12 14:26:23;;;;;;;3.38;1.45;;;30.30;99.90;;;;;;5063879;28;20040;-92
2023/08/12 14:29:11;;;;;;;3.22;1.60;;;30.90;99.90;;;;;;5052986;28;20041;-90
2023/08/12 14:31:58;;;;;;;2.42;1.30;;;31.50;99.90;;;;;;5074992;28;20045;-90
2023/08/12 14:34:46;;;;;;;2.97;1.45;;;30.90;99.90;;;;;;5065294;28;20059;-91
2023/08/12 14:37:33;;;;;;;2.97;1.45;;;30.50;99.90;;;;;;5080047;28;20246;-91
2023/08/12 14:40:24;;;;;;;2.25;1.40;;;30.20;99.90;;;;;;5080082;28;20072;-91